Kungrad, Uzbekistan
Current Conditions -  °F | °C
As of 10:30 AM on Wednesday 26 Nov 2014 (Local Time) from UTNN Reporting Station
Clear Clear  
Wind Chill:   Ceiling: Unl
Heat Index: 16°   Visibility: 6mi
Dew Point:   Wind: 12mph
Humidity: 58%   Direction: 50°NE
Pressure: 30.45"   Gusts: NA
Location:  43.07°N, 58.91°E
Report Text: UTNN 260530Z 05010KT CAVOK M09/M16 Q1031 R33/CLRD60 NOSIG
Loading
Personal Weather Stations






























Interactive Weather Map New forecast layout! Learn more

10-Day Weather Forecast

Advertisements
Track Severe Weather on mobile